createdAt,value
2019-01-24T00:01:17.395Z,-8.67
2019-01-24T00:03:46.483Z,-8.67
2019-01-24T00:06:15.575Z,-8.70
2019-01-24T00:08:44.673Z,-8.71
2019-01-24T00:11:13.761Z,-8.74
2019-01-24T00:13:42.842Z,-8.77
2019-01-24T00:16:11.960Z,-8.78
2019-01-24T00:18:41.035Z,-8.80
2019-01-24T00:21:10.135Z,-8.80
2019-01-24T00:23:39.242Z,-8.81
2019-01-24T00:26:08.318Z,-8.83
2019-01-24T00:28:37.402Z,-8.84
2019-01-24T00:31:06.520Z,-8.87
2019-01-24T00:33:35.836Z,-8.88
2019-01-24T00:36:04.850Z,-8.89
2019-01-24T00:38:34.123Z,-8.92
2019-01-24T00:41:03.185Z,-8.93
2019-01-24T00:43:32.253Z,-8.92
2019-01-24T00:46:15.373Z,-8.94
2019-01-24T00:48:44.468Z,-8.96
2019-01-24T00:51:13.531Z,-8.96
2019-01-24T00:53:42.748Z,-8.99
2019-01-24T00:56:11.843Z,-9.01
2019-01-24T00:58:40.882Z,-9.03
2019-01-24T01:01:10.050Z,-9.06
2019-01-24T01:03:39.152Z,-9.08
2019-01-24T01:06:08.204Z,-9.11
2019-01-24T01:08:37.302Z,-9.16
2019-01-24T01:11:06.380Z,-9.17
2019-01-24T01:13:35.456Z,-9.21
2019-01-24T01:16:04.915Z,-9.22
2019-01-24T01:18:33.919Z,-9.21
2019-01-24T01:21:02.978Z,-9.22
2019-01-24T01:23:32.075Z,-9.22
2019-01-24T01:26:17.499Z,-9.25
2019-01-24T01:28:47.569Z,-9.28
2019-01-24T01:31:16.638Z,-9.29
2019-01-24T01:33:45.721Z,-9.30
2019-01-24T01:36:14.850Z,-9.31
2019-01-24T01:38:43.922Z,-9.32
2019-01-24T01:41:13.000Z,-9.33
2019-01-24T01:43:42.100Z,-9.34
2019-01-24T01:46:11.170Z,-9.34
2019-01-24T01:48:40.269Z,-9.34
2019-01-24T01:51:09.371Z,-9.34
2019-01-24T01:53:38.451Z,-9.32
2019-01-24T01:56:07.537Z,-9.33
2019-01-24T01:58:36.641Z,-9.34
2019-01-24T02:01:05.719Z,-9.37
2019-01-24T02:03:34.809Z,-9.38
2019-01-24T02:06:03.908Z,-9.42
2019-01-24T02:08:32.978Z,-9.43
2019-01-24T02:11:02.054Z,-9.43
2019-01-24T02:13:31.157Z,-9.42
2019-01-24T02:16:00.232Z,-9.41
2019-01-24T02:18:29.297Z,-9.43
2019-01-24T02:20:58.417Z,-9.44
2019-01-24T02:23:27.487Z,-9.47
2019-01-24T02:26:15.600Z,-9.49
2019-01-24T02:28:44.653Z,-9.49
2019-01-24T02:31:13.743Z,-9.51
2019-01-24T02:33:42.839Z,-9.53
2019-01-24T02:36:11.916Z,-9.53
2019-01-24T02:38:40.973Z,-9.53
2019-01-24T02:41:10.221Z,-9.56
2019-01-24T02:43:39.300Z,-9.58
2019-01-24T02:46:08.349Z,-9.59
2019-01-24T02:48:37.475Z,-9.59
2019-01-24T02:51:06.542Z,-9.62
2019-01-24T02:53:35.616Z,-9.62
2019-01-24T02:56:04.960Z,-9.64
2019-01-24T02:58:34.000Z,-9.66
2019-01-24T03:01:03.103Z,-9.67
2019-01-24T03:03:32.264Z,-9.70
2019-01-24T03:06:01.357Z,-9.73
2019-01-24T03:08:30.426Z,-9.72
2019-01-24T03:10:59.525Z,-9.74
2019-01-24T03:13:28.594Z,-9.74
2019-01-24T03:15:57.674Z,-9.77
2019-01-24T03:18:26.774Z,-9.79
2019-01-24T03:20:55.851Z,-9.80
2019-01-24T03:23:24.926Z,-9.83
2019-01-24T03:25:54.038Z,-9.85
2019-01-24T03:28:23.116Z,-9.88
2019-01-24T03:30:52.193Z,-9.88
2019-01-24T03:33:22.236Z,-9.90
2019-01-24T03:35:51.346Z,-9.91
2019-01-24T03:38:20.380Z,-9.92
2019-01-24T03:40:49.476Z,-9.94
2019-01-24T03:43:18.551Z,-9.92
2019-01-24T03:45:47.632Z,-9.93
2019-01-24T03:48:16.748Z,-9.94
2019-01-24T03:50:45.817Z,-9.96
2019-01-24T03:53:14.895Z,-9.95
2019-01-24T03:55:43.998Z,-9.92
2019-01-24T03:58:13.062Z,-9.92
2019-01-24T04:00:42.144Z,-9.92
2019-01-24T04:03:11.256Z,-9.91
2019-01-24T04:05:40.327Z,-9.90
2019-01-24T04:08:09.397Z,-9.89
2019-01-24T04:10:38.515Z,-9.88
2019-01-24T04:13:07.585Z,-9.87
2019-01-24T04:15:36.669Z,-9.88
2019-01-24T04:18:06.137Z,-9.89
2019-01-24T04:20:35.126Z,-9.92
2019-01-24T04:23:04.187Z,-9.91
2019-01-24T04:25:33.291Z,-9.93
2019-01-24T04:28:02.350Z,-9.95
2019-01-24T04:30:31.788Z,-9.96
2019-01-24T04:33:01.233Z,-9.95
2019-01-24T04:35:30.897Z,-9.96
2019-01-24T04:37:59.884Z,-9.96
2019-01-24T04:40:28.988Z,-9.99
2019-01-24T04:42:58.069Z,-10.00
2019-01-24T04:45:38.658Z,-10.03
2019-01-24T04:48:07.721Z,-10.04
2019-01-24T04:50:36.794Z,-10.06
2019-01-24T04:53:05.902Z,-10.07
2019-01-24T04:55:34.990Z,-10.06
2019-01-24T04:58:04.070Z,-10.06
2019-01-24T05:00:33.176Z,-10.07
2019-01-24T05:03:02.275Z,-10.08
2019-01-24T05:05:36.498Z,-10.10
2019-01-24T05:08:05.579Z,-10.12
2019-01-24T05:10:34.669Z,-10.11
2019-01-24T05:13:03.833Z,-10.11
2019-01-24T05:15:32.919Z,-10.13
2019-01-24T05:18:02.003Z,-10.13
2019-01-24T05:20:31.121Z,-10.14
2019-01-24T05:23:00.201Z,-10.16
2019-01-24T05:25:29.290Z,-10.14
2019-01-24T05:27:58.388Z,-10.13
2019-01-24T05:30:27.468Z,-10.12
2019-01-24T05:32:56.548Z,-10.12
2019-01-24T05:35:25.673Z,-10.12
2019-01-24T05:37:54.755Z,-10.14
2019-01-24T05:40:23.841Z,-10.13
2019-01-24T05:42:52.958Z,-10.12
2019-01-24T05:45:22.050Z,-10.15
2019-01-24T05:47:51.341Z,-10.16
2019-01-24T05:50:20.383Z,-10.17
2019-01-24T05:52:49.461Z,-10.17
2019-01-24T05:55:18.868Z,-10.18
2019-01-24T05:57:47.962Z,-10.19
2019-01-24T06:00:17.046Z,-10.18
2019-01-24T06:02:46.117Z,-10.20
2019-01-24T06:08:09.598Z,-10.23
2019-01-24T06:10:38.704Z,-10.24
2019-01-24T06:13:07.798Z,-10.22
2019-01-24T06:15:36.876Z,-10.21
2019-01-24T06:18:05.995Z,-10.23
2019-01-24T06:20:35.076Z,-10.23
2019-01-24T06:23:04.177Z,-10.23
2019-01-24T06:25:33.299Z,-10.23
2019-01-24T06:28:02.379Z,-10.24
2019-01-24T06:30:31.475Z,-10.24
2019-01-24T06:33:00.600Z,-10.22
2019-01-24T06:35:36.754Z,-10.21
2019-01-24T06:38:06.770Z,-10.19
2019-01-24T06:40:35.823Z,-10.18
2019-01-24T06:43:04.900Z,-10.18
2019-01-24T06:45:34.019Z,-10.17
2019-01-24T06:48:03.108Z,-10.15
2019-01-24T06:50:32.194Z,-10.14
2019-01-24T06:53:01.305Z,-10.16
2019-01-24T06:55:30.374Z,-10.15
2019-01-24T06:57:59.458Z,-10.16
2019-01-24T07:00:28.586Z,-10.16
2019-01-24T07:02:57.686Z,-10.17
2019-01-24T07:05:26.789Z,-10.15
2019-01-24T07:07:55.910Z,-10.12
2019-01-24T07:10:25.019Z,-10.09
2019-01-24T07:12:54.102Z,-10.07
2019-01-24T07:15:23.315Z,-10.03
2019-01-24T07:17:52.412Z,-9.99
2019-01-24T07:20:21.538Z,-9.93
2019-01-24T07:22:50.614Z,-9.81
2019-01-24T07:28:20.945Z,-9.41
2019-01-24T07:30:50.031Z,-9.21
2019-01-24T07:33:19.100Z,-9.02
2019-01-24T07:35:48.193Z,-8.87
2019-01-24T07:38:17.281Z,-8.70
2019-01-24T07:40:46.354Z,-8.52
2019-01-24T07:43:15.731Z,-8.35
2019-01-24T07:45:44.581Z,-8.16
2019-01-24T07:48:13.669Z,-7.94
2019-01-24T07:50:42.799Z,-7.74
2019-01-24T07:53:11.875Z,-7.60
2019-01-24T07:55:40.959Z,-7.54
2019-01-24T07:58:10.106Z,-7.51
2019-01-24T08:00:39.136Z,-7.54
2019-01-24T08:03:08.239Z,-7.52
2019-01-24T08:05:37.906Z,-7.39
2019-01-24T08:08:06.443Z,-7.24
2019-01-24T08:10:35.542Z,-7.07
2019-01-24T08:13:04.654Z,-6.94
2019-01-24T08:15:35.753Z,-6.82
2019-01-24T08:18:04.876Z,-6.67
2019-01-24T08:20:34.000Z,-6.52
2019-01-24T08:23:03.046Z,-6.35
2019-01-24T08:25:32.174Z,-6.17
2019-01-24T08:28:01.260Z,-6.01
2019-01-24T08:30:30.354Z,-5.85
2019-01-24T08:32:59.459Z,-5.68
2019-01-24T08:35:28.542Z,-5.51
2019-01-24T08:37:57.635Z,-5.33
2019-01-24T08:40:27.567Z,-5.11
2019-01-24T08:42:56.651Z,-5.01
2019-01-24T08:45:25.745Z,-4.92
2019-01-24T08:47:54.855Z,-4.91
2019-01-24T08:50:23.952Z,-4.80
2019-01-24T08:52:53.037Z,-4.67
2019-01-24T08:55:34.494Z,-4.61
2019-01-24T08:58:03.574Z,-4.56
2019-01-24T09:00:32.663Z,-4.57
2019-01-24T09:03:02.059Z,-4.47
2019-01-24T09:05:31.139Z,-4.39
2019-01-24T09:08:00.223Z,-4.28
2019-01-24T09:10:31.304Z,-4.20
2019-01-24T09:13:00.402Z,-4.14
2019-01-24T09:15:29.489Z,-4.07
2019-01-24T09:17:58.601Z,-4.07
2019-01-24T09:20:27.693Z,-4.02
2019-01-24T09:22:56.803Z,-3.90
2019-01-24T09:25:25.970Z,-3.84
2019-01-24T09:27:55.055Z,-3.85
2019-01-24T09:30:24.183Z,-3.78
2019-01-24T09:32:53.292Z,-3.70
2019-01-24T09:35:22.416Z,-3.58
2019-01-24T09:37:51.503Z,-3.47
2019-01-24T09:40:20.615Z,-3.38
2019-01-24T09:42:50.579Z,-3.28
2019-01-24T09:45:19.673Z,-3.23
2019-01-24T09:47:48.787Z,-3.10
2019-01-24T09:50:19.421Z,-3.02
2019-01-24T09:52:48.497Z,-2.90
2019-01-24T09:55:39.043Z,-2.82
2019-01-24T09:58:08.127Z,-2.67
2019-01-24T10:00:37.203Z,-2.54
2019-01-24T10:03:06.340Z,-2.50
2019-01-24T10:05:35.417Z,-2.43
2019-01-24T10:08:04.482Z,-2.40
2019-01-24T10:10:33.607Z,-2.34
2019-01-24T10:13:02.698Z,-2.31
2019-01-24T10:15:31.789Z,-2.28
2019-01-24T10:18:00.895Z,-2.19
2019-01-24T10:20:29.973Z,-2.29
2019-01-24T10:22:59.037Z,-2.27
2019-01-24T10:25:36.490Z,-2.19
2019-01-24T10:28:05.551Z,-2.18
2019-01-24T10:30:34.636Z,-2.18
2019-01-24T10:33:03.723Z,-2.17
2019-01-24T10:35:32.799Z,-2.18
2019-01-24T10:38:01.864Z,-2.24
2019-01-24T10:40:30.966Z,-2.23
2019-01-24T10:43:00.041Z,-2.22
2019-01-24T10:45:47.594Z,-2.19
2019-01-24T10:48:16.663Z,-2.19
2019-01-24T10:50:45.723Z,-2.19
2019-01-24T10:53:14.854Z,-2.19
2019-01-24T10:55:48.747Z,-2.18
2019-01-24T10:58:17.851Z,-2.20
2019-01-24T11:00:46.970Z,-2.20
2019-01-24T11:03:15.996Z,-2.24
2019-01-24T11:05:45.102Z,-2.23
2019-01-24T11:08:14.172Z,-2.36
2019-01-24T11:10:43.239Z,-2.36
2019-01-24T11:13:12.340Z,-2.49
2019-01-24T11:15:56.456Z,-2.46
2019-01-24T11:18:25.550Z,-2.60
2019-01-24T11:20:54.626Z,-2.65
2019-01-24T11:23:23.685Z,-2.69
2019-01-24T11:25:52.816Z,-2.83
2019-01-24T11:28:21.893Z,-2.93
2019-01-24T11:30:50.955Z,-2.89
2019-01-24T11:33:20.051Z,-2.97
2019-01-24T11:35:49.129Z,-3.05
2019-01-24T11:38:18.196Z,-3.05
2019-01-24T11:40:47.290Z,-3.21
2019-01-24T11:43:16.368Z,-3.28
2019-01-24T11:45:45.439Z,-3.30
2019-01-24T11:48:14.572Z,-3.27
2019-01-24T11:50:43.641Z,-3.30
2019-01-24T11:53:12.717Z,-3.34
2019-01-24T11:55:42.135Z,-3.39
2019-01-24T11:58:11.133Z,-3.39
2019-01-24T12:00:40.199Z,-3.40
2019-01-24T12:03:09.298Z,-3.46
2019-01-24T12:08:43.957Z,-3.53
2019-01-24T12:11:13.030Z,-3.50
2019-01-24T12:13:42.118Z,-3.60
2019-01-24T12:16:11.221Z,-3.62
2019-01-24T12:18:40.295Z,-3.70
2019-01-24T12:21:09.373Z,-3.76
2019-01-24T12:23:38.465Z,-3.73
2019-01-24T12:26:07.533Z,-3.74
2019-01-24T12:28:36.600Z,-3.78
2019-01-24T12:31:05.705Z,-3.94
2019-01-24T12:33:34.774Z,-3.90
2019-01-24T12:36:04.120Z,-3.90
2019-01-24T12:38:33.168Z,-3.94
2019-01-24T12:41:02.240Z,-3.96
2019-01-24T12:43:32.198Z,-3.95
2019-01-24T12:46:01.287Z,-3.95
2019-01-24T12:48:30.348Z,-3.99
2019-01-24T12:50:59.407Z,-4.04
2019-01-24T12:53:28.529Z,-4.09
2019-01-24T12:55:57.599Z,-4.11
2019-01-24T12:58:26.673Z,-4.28
2019-01-24T13:00:55.863Z,-4.29
2019-01-24T13:03:24.931Z,-4.30
2019-01-24T13:05:53.995Z,-4.33
2019-01-24T13:08:23.087Z,-4.45
2019-01-24T13:10:52.164Z,-4.43
2019-01-24T13:13:21.232Z,-4.52
2019-01-24T13:15:50.647Z,-4.59
2019-01-24T13:18:19.722Z,-4.57
2019-01-24T13:20:48.844Z,-4.64
2019-01-24T13:23:17.961Z,-4.62
2019-01-24T13:25:47.046Z,-4.77
2019-01-24T13:28:16.298Z,-4.86
2019-01-24T13:30:45.390Z,-4.85
2019-01-24T13:33:15.183Z,-4.96
2019-01-24T13:35:43.555Z,-4.97
2019-01-24T13:38:12.686Z,-5.07
2019-01-24T13:40:41.758Z,-5.14
2019-01-24T13:43:10.827Z,-5.14
2019-01-24T13:45:39.925Z,-5.21
2019-01-24T13:48:09.000Z,-5.20
2019-01-24T13:50:38.074Z,-5.31
2019-01-24T13:53:07.165Z,-5.28
2019-01-24T13:55:36.237Z,-5.26
2019-01-24T13:58:05.323Z,-5.31
2019-01-24T14:00:34.428Z,-5.36
2019-01-24T14:03:17.055Z,-5.40
2019-01-24T14:05:46.161Z,-5.45
2019-01-24T14:08:15.231Z,-5.45
2019-01-24T14:10:44.303Z,-5.46
2019-01-24T14:13:13.401Z,-5.46
2019-01-24T14:15:42.475Z,-5.46
2019-01-24T14:18:11.534Z,-5.48
2019-01-24T14:20:40.670Z,-5.52
2019-01-24T14:23:09.743Z,-5.53
2019-01-24T14:25:38.833Z,-5.56
2019-01-24T14:28:07.943Z,-5.62
2019-01-24T14:30:37.017Z,-5.67
2019-01-24T14:33:06.091Z,-5.64
2019-01-24T14:35:35.211Z,-5.62
2019-01-24T14:38:04.292Z,-5.67
2019-01-24T14:40:33.379Z,-5.66
2019-01-24T14:43:02.504Z,-5.73
2019-01-24T14:45:32.344Z,-5.69
2019-01-24T14:48:01.412Z,-5.69
2019-01-24T14:50:30.510Z,-5.60
2019-01-24T14:52:59.596Z,-5.60
2019-01-24T14:58:37.983Z,-5.59
2019-01-24T15:01:07.107Z,-5.50
2019-01-24T15:03:36.177Z,-5.49
2019-01-24T15:06:26.341Z,-5.46
2019-01-24T15:08:55.424Z,-5.44
2019-01-24T15:11:24.494Z,-5.42
2019-01-24T15:13:53.608Z,-5.45
2019-01-24T15:16:22.680Z,-5.45
2019-01-24T15:18:51.755Z,-5.45
2019-01-24T15:21:20.974Z,-5.43
2019-01-24T15:23:50.035Z,-5.46
2019-01-24T15:26:19.119Z,-5.47
2019-01-24T15:28:48.226Z,-5.45
2019-01-24T15:31:17.306Z,-5.43
2019-01-24T15:33:46.372Z,-5.39
2019-01-24T15:36:15.500Z,-5.32
2019-01-24T15:38:44.571Z,-5.32
2019-01-24T15:41:13.638Z,-5.33
2019-01-24T15:43:42.848Z,-5.30
2019-01-24T15:46:11.926Z,-5.25
2019-01-24T15:48:42.793Z,-5.20
2019-01-24T15:51:10.096Z,-5.18
2019-01-24T15:53:39.168Z,-5.15
2019-01-24T15:56:08.233Z,-5.17
2019-01-24T15:58:37.319Z,-5.17
2019-01-24T16:01:06.401Z,-5.17
2019-01-24T16:03:35.479Z,-5.13
2019-01-24T16:06:25.312Z,-5.16
2019-01-24T16:08:54.397Z,-5.18
2019-01-24T16:11:23.469Z,-5.21
2019-01-24T16:13:52.582Z,-5.24
2019-01-24T16:16:21.648Z,-5.29
2019-01-24T16:18:50.719Z,-5.33
2019-01-24T16:21:19.849Z,-5.37
2019-01-24T16:23:48.918Z,-5.40
2019-01-24T16:26:17.987Z,-5.42
2019-01-24T16:28:47.091Z,-5.45
2019-01-24T16:31:16.178Z,-5.50
2019-01-24T16:33:45.254Z,-5.55
2019-01-24T16:36:16.360Z,-5.61
2019-01-24T16:38:45.446Z,-5.67
2019-01-24T16:41:14.525Z,-5.73
2019-01-24T16:43:43.633Z,-5.78
2019-01-24T16:46:13.539Z,-5.84
2019-01-24T16:48:42.611Z,-5.90
2019-01-24T16:51:11.729Z,-5.95
2019-01-24T16:53:40.869Z,-5.97
2019-01-24T16:56:09.937Z,-6.01
2019-01-24T16:58:39.041Z,-6.06
2019-01-24T17:01:08.124Z,-6.10
2019-01-24T17:03:37.195Z,-6.15
2019-01-24T17:06:06.377Z,-6.21
2019-01-24T17:08:35.452Z,-6.26
2019-01-24T17:11:04.550Z,-6.30
2019-01-24T17:13:33.706Z,-6.34
2019-01-24T17:16:02.781Z,-6.39
2019-01-24T17:18:31.862Z,-6.45
2019-01-24T17:21:00.960Z,-6.50
2019-01-24T17:23:30.049Z,-6.52
2019-01-24T17:25:59.138Z,-6.54
2019-01-24T17:28:28.241Z,-6.59
2019-01-24T17:30:57.332Z,-6.65
2019-01-24T17:33:26.412Z,-6.69
2019-01-24T17:35:55.866Z,-6.73
2019-01-24T17:38:24.952Z,-6.77
2019-01-24T17:40:54.033Z,-6.80
2019-01-24T17:43:23.153Z,-6.83
2019-01-24T17:45:52.237Z,-6.84
2019-01-24T17:48:21.331Z,-6.84
2019-01-24T17:50:50.435Z,-6.82
2019-01-24T17:53:19.527Z,-6.84
2019-01-24T17:55:48.617Z,-6.84
2019-01-24T17:58:18.659Z,-6.85
2019-01-24T18:00:47.735Z,-6.85
2019-01-24T18:03:16.816Z,-6.84
2019-01-24T18:05:45.936Z,-6.83
2019-01-24T18:08:15.016Z,-6.84
2019-01-24T18:10:44.108Z,-6.85
2019-01-24T18:13:13.217Z,-6.89
2019-01-24T18:15:42.304Z,-6.94
2019-01-24T18:18:11.398Z,-7.00
2019-01-24T18:20:40.534Z,-7.01
2019-01-24T18:23:09.628Z,-7.02
2019-01-24T18:25:38.723Z,-7.04
2019-01-24T18:28:07.838Z,-7.06
2019-01-24T18:30:36.926Z,-7.13
2019-01-24T18:33:06.004Z,-7.16
2019-01-24T18:35:35.122Z,-7.21
2019-01-24T18:38:04.266Z,-7.26
2019-01-24T18:40:33.417Z,-7.31
2019-01-24T18:43:02.542Z,-7.36
2019-01-24T18:45:31.631Z,-7.41
2019-01-24T18:48:00.718Z,-7.46
2019-01-24T18:50:30.706Z,-7.52
2019-01-24T18:52:59.784Z,-7.53
2019-01-24T18:55:28.868Z,-7.58
2019-01-24T18:57:57.978Z,-7.60
2019-01-24T19:00:27.079Z,-7.63
2019-01-24T19:02:56.160Z,-7.61
2019-01-24T19:05:25.314Z,-7.59
2019-01-24T19:07:54.391Z,-7.60
2019-01-24T19:10:23.471Z,-7.61
2019-01-24T19:12:52.580Z,-7.63
2019-01-24T19:15:21.658Z,-7.64
2019-01-24T19:17:50.738Z,-7.67
2019-01-24T19:20:20.322Z,-7.71
2019-01-24T19:22:48.950Z,-7.76
2019-01-24T19:25:30.437Z,-7.80
2019-01-24T19:27:59.527Z,-7.83
2019-01-24T19:30:29.431Z,-7.84
2019-01-24T19:32:58.609Z,-7.87
2019-01-24T19:35:28.827Z,-7.89
2019-01-24T19:37:57.677Z,-7.91
2019-01-24T19:40:26.799Z,-7.93
2019-01-24T19:42:55.894Z,-7.98
2019-01-24T19:45:24.990Z,-8.02
2019-01-24T19:47:54.118Z,-8.09
2019-01-24T19:50:25.138Z,-8.12
2019-01-24T19:52:54.228Z,-8.17
2019-01-24T19:55:23.400Z,-8.21
2019-01-24T19:57:52.494Z,-8.23
2019-01-24T20:00:21.664Z,-8.24
2019-01-24T20:02:50.781Z,-8.25
2019-01-24T20:05:19.907Z,-8.27
2019-01-24T20:07:48.994Z,-8.30
2019-01-24T20:10:19.219Z,-8.31
2019-01-24T20:12:48.310Z,-8.30
2019-01-24T20:15:18.204Z,-8.31
2019-01-24T20:17:47.306Z,-8.33
2019-01-24T20:20:16.403Z,-8.33
2019-01-24T20:22:45.558Z,-8.33
2019-01-24T20:25:19.794Z,-8.34
2019-01-24T20:27:48.893Z,-8.34
2019-01-24T20:30:17.988Z,-8.36
2019-01-24T20:32:47.099Z,-8.37
2019-01-24T20:35:16.175Z,-8.38
2019-01-24T20:37:45.267Z,-8.38
2019-01-24T20:40:14.385Z,-8.39
2019-01-24T20:42:43.480Z,-8.38
2019-01-24T20:45:12.578Z,-8.36
2019-01-24T20:47:41.692Z,-8.36
2019-01-24T20:50:12.323Z,-8.38
2019-01-24T20:52:41.408Z,-8.41
2019-01-24T20:55:10.519Z,-8.44
2019-01-24T20:57:39.600Z,-8.46
2019-01-24T21:00:11.642Z,-8.46
2019-01-24T21:02:40.740Z,-8.45
2019-01-24T21:05:09.855Z,-8.46
2019-01-24T21:07:39.093Z,-8.48
2019-01-24T21:10:08.929Z,-8.49
2019-01-24T21:12:50.578Z,-8.54
2019-01-24T21:15:29.263Z,-8.57
2019-01-24T21:17:59.238Z,-8.61
2019-01-24T21:20:28.352Z,-8.63
2019-01-24T21:22:57.479Z,-8.66
2019-01-24T21:25:26.629Z,-8.68
2019-01-24T21:27:55.707Z,-8.65
2019-01-24T21:30:28.544Z,-8.64
2019-01-24T21:32:57.630Z,-8.60
2019-01-24T21:35:43.719Z,-8.57
2019-01-24T21:38:12.816Z,-8.54
2019-01-24T21:40:41.903Z,-8.48
2019-01-24T21:43:11.019Z,-8.46
2019-01-24T21:45:40.111Z,-8.43
2019-01-24T21:48:09.186Z,-8.40
2019-01-24T21:50:38.309Z,-8.35
2019-01-24T21:53:08.224Z,-8.29
2019-01-24T21:55:44.952Z,-8.26
2019-01-24T21:58:14.027Z,-8.18
2019-01-24T22:00:43.442Z,-8.14
2019-01-24T22:03:12.506Z,-8.08
2019-01-24T22:05:41.636Z,-8.05
2019-01-24T22:08:10.691Z,-7.97
2019-01-24T22:10:39.797Z,-7.90
2019-01-24T22:13:08.883Z,-7.81
2019-01-24T22:15:37.974Z,-7.73
2019-01-24T22:18:07.080Z,-7.64
2019-01-24T22:20:36.168Z,-7.55
2019-01-24T22:23:05.236Z,-7.50
2019-01-24T22:25:34.450Z,-7.42
2019-01-24T22:28:03.531Z,-7.38
2019-01-24T22:30:32.611Z,-7.34
2019-01-24T22:33:01.726Z,-7.29
2019-01-24T22:35:30.817Z,-7.28
2019-01-24T22:37:59.893Z,-7.26
2019-01-24T22:40:29.003Z,-7.24
2019-01-24T22:42:58.089Z,-7.25
2019-01-24T22:45:27.169Z,-7.24
2019-01-24T22:47:56.279Z,-7.23
2019-01-24T22:50:25.352Z,-7.22
2019-01-24T22:52:54.432Z,-7.26
2019-01-24T22:55:42.318Z,-7.27
2019-01-24T22:58:11.387Z,-7.29
2019-01-24T23:00:53.071Z,-7.29
2019-01-24T23:03:22.148Z,-7.29
2019-01-24T23:05:52.383Z,-7.27
2019-01-24T23:08:20.518Z,-7.28
2019-01-24T23:10:49.618Z,-7.27
2019-01-24T23:13:18.695Z,-7.26
2019-01-24T23:15:47.820Z,-7.24
2019-01-24T23:18:16.905Z,-7.22
2019-01-24T23:20:45.976Z,-7.19
2019-01-24T23:23:15.066Z,-7.18
2019-01-24T23:25:44.127Z,-7.17
2019-01-24T23:28:13.202Z,-7.18
2019-01-24T23:30:42.316Z,-7.16
2019-01-24T23:33:11.396Z,-7.15
2019-01-24T23:35:40.474Z,-7.11
2019-01-24T23:38:09.564Z,-7.10
2019-01-24T23:40:38.640Z,-7.06
2019-01-24T23:43:07.715Z,-7.05
2019-01-24T23:45:36.812Z,-7.06
2019-01-24T23:48:05.898Z,-7.07
2019-01-24T23:50:34.975Z,-7.08
2019-01-24T23:53:04.142Z,-7.10
2019-01-24T23:55:33.313Z,-7.11
2019-01-24T23:58:02.383Z,-7.14
